Southgate, MI (48195)

12:07 EDT le 21 septembre 2014 (GMT -0400)
Castle and Burns St. | Change Station
CLOSE
Current Station
Stations météorologiques personnelles
Location: Southgate, MI
Altitude: 580 ft
Stations météo à proximité

Alt. 580 ft 42.21 °N, 83.19 °W | Updated 2 minutes ago

Nuageux
Nuageux
67.2 ° F
Paraît 67.2 ° F
N
9.0
Vent Variable Vent de Ouest
Gusts 9.0 mph

Aujourd'hui
Haut(e) -- | Bas -- ° F
--% Risque de précip.
Hier
Haut(e) -- | Bas -- ° F
Precip. -- pouce
7:19 AM 7:31 PM
Lune descendante, 6% visible
Pression 29.68 pouce
Visibilité 10.0 Miles terrestres
Nuages Nuages épars 3000 ft
Nuageux 5000 ft
Point de rosée 57 ° F
Humidité 69%
Précipitations 0.00 pouce
Profondeur de la couche neigeuse Non disponible.
UV 3.0 sur 12
Pollen 1.70 sur 12
Ozone Bon
PM2.5 Bon
Flu Activity Non disponible.
METAR KDTW 211553Z 23017G23KT 10SM SCT030 BKN050 19/12 A2969 RMK AO2 SLP051 T01940117 $

More Conditions Fewer Conditions

Pression 29.68 pouce
Visibilité 10.0 Miles terrestres
Nuages Nuages épars 3000 ft
Nuageux 5000 ft
Point de rosée 57 ° F
Humidité 69%
Précipitations 0.00 pouce
Profondeur de la couche neigeuse Non disponible.
UV 3.0 sur 12
Pollen 1.70 sur 12
Ozone Bon
PM2.5 Bon
Flu Activity Non disponible.
METAR KDTW 211553Z 23017G23KT 10SM SCT030 BKN050 19/12 A2969 RMK AO2 SLP051 T01940117 $

More Conditions Fewer Conditions

10-Day Weather Forecast

Almanac

Astronomie

Sep. 21, 2014 Lever Coucher
Temps réel 07:19 EDT 19:31 EDT
Crépuscule civil 06:51 EDT 19:59 EDT
Crépuscule nautique 06:18 EDT 20:32 EDT
Crépuscule astronomique 05:44 EDT 21:06 EDT
Lune 04:49 EDT 18:08 EDT
Durée de lumière visible 13h 08m
Longueur du jour
12h 12m
Tomorrow will be 2m 50s shorter.
Lune descendante, 6% of the Moon is Illuminated
Aujourd'hui
Lune descendante
Sep 24
Nouveau
Oct 1
Premier quartier
Oct 8
Pleine lune
Oct 15
Dernier quartier

Extrêmes aujourd'hui

State Highs State Lows

Community

WunderPhotos

Upload Photos

1,755,181 Photos téléchargées !

Nearby

Qualité de l'air

  Qualité de l'air Indice de la qualité de l'air Polluant
Hier Bon
PM10
Hier Bon
OZONE
Actuel Bon
OZONE
Actuel Bon
PM2.5
dimanche Bon
OZONE
dimanche Bon
PM2.5
lundi Bon
OZONE
lundi Bon
PM2.5

Épaisseur de neige

Station Depth Altitude
Pas de nouvelles chutes de neige

Activité sismique

Ville Distance Mag. Time & Date
No recent earthquake activity has been reported nearby.
Minimum magnitude displayed is 2.5.

Températures des eaux côtières

Lieu Température
Marblehead, OH 66.0 ° F

Stations météo à proximité